sensor_id;sensor_type;location;lat;lon;timestamp;pressure;altitude;pressure_sealevel;temperature;humidity
23899;BME280;20544;50.018;20.010;2023-12-20T00:00:22;98248.70;;;6.96;100.00
23899;BME280;20544;50.018;20.010;2023-12-20T00:03:42;98256.28;;;6.99;100.00
23899;BME280;20544;50.018;20.010;2023-12-20T00:07:00;98250.16;;;6.99;100.00
23899;BME280;20544;50.018;20.010;2023-12-20T00:10:19;98243.24;;;6.98;100.00
23899;BME280;20544;50.018;20.010;2023-12-20T00:13:37;98241.29;;;6.91;100.00
23899;BME280;20544;50.018;20.010;2023-12-20T00:16:57;98234.55;;;6.89;100.00
23899;BME280;20544;50.018;20.010;2023-12-20T00:20:15;98231.91;;;6.89;100.00
23899;BME280;20544;50.018;20.010;2023-12-20T00:23:35;98227.63;;;6.88;100.00
23899;BME280;20544;50.018;20.010;2023-12-20T00:26:53;98234.06;;;6.85;100.00
23899;BME280;20544;50.018;20.010;2023-12-20T00:30:14;98212.50;;;6.82;100.00
23899;BME280;20544;50.018;20.010;2023-12-20T00:33:32;98222.61;;;6.70;100.00
23899;BME280;20544;50.018;20.010;2023-12-20T00:36:52;98215.55;;;6.62;100.00
23899;BME280;20544;50.018;20.010;2023-12-20T00:40:13;98205.34;;;6.59;100.00
23899;BME280;20544;50.018;20.010;2023-12-20T00:43:30;98207.16;;;6.58;100.00
23899;BME280;20544;50.018;20.010;2023-12-20T00:46:47;98197.59;;;6.66;100.00
23899;BME280;20544;50.018;20.010;2023-12-20T00:50:06;98200.05;;;6.67;100.00
23899;BME280;20544;50.018;20.010;2023-12-20T00:53:24;98195.27;;;6.71;100.00
23899;BME280;20544;50.018;20.010;2023-12-20T00:56:41;98197.72;;;6.72;100.00
23899;BME280;20544;50.018;20.010;2023-12-20T00:59:59;98195.56;;;6.76;100.00
23899;BME280;20544;50.018;20.010;2023-12-20T01:03:20;98200.03;;;6.75;100.00
23899;BME280;20544;50.018;20.010;2023-12-20T01:06:38;98195.20;;;6.79;100.00
23899;BME280;20544;50.018;20.010;2023-12-20T01:09:55;98189.79;;;6.80;100.00
23899;BME280;20544;50.018;20.010;2023-12-20T01:13:13;98190.90;;;6.86;100.00
23899;BME280;20544;50.018;20.010;2023-12-20T01:16:33;98192.91;;;6.84;100.00
23899;BME280;20544;50.018;20.010;2023-12-20T01:19:52;98199.17;;;6.83;100.00
23899;BME280;20544;50.018;20.010;2023-12-20T01:23:13;98189.61;;;6.82;100.00
23899;BME280;20544;50.018;20.010;2023-12-20T01:26:33;98172.17;;;6.73;100.00
23899;BME280;20544;50.018;20.010;2023-12-20T01:29:49;98165.79;;;6.67;100.00
23899;BME280;20544;50.018;20.010;2023-12-20T01:33:07;98173.70;;;6.67;100.00
23899;BME280;20544;50.018;20.010;2023-12-20T01:36:32;98162.17;;;6.68;100.00
23899;BME280;20544;50.018;20.010;2023-12-20T01:39:50;98155.43;;;6.66;100.00
23899;BME280;20544;50.018;20.010;2023-12-20T01:43:09;98141.95;;;6.60;100.00
23899;BME280;20544;50.018;20.010;2023-12-20T01:46:27;98129.91;;;6.58;100.00
23899;BME280;20544;50.018;20.010;2023-12-20T01:49:45;98125.66;;;6.57;100.00
23899;BME280;20544;50.018;20.010;2023-12-20T01:53:03;98114.46;;;6.55;100.00
23899;BME280;20544;50.018;20.010;2023-12-20T01:56:21;98105.57;;;6.56;100.00
23899;BME280;20544;50.018;20.010;2023-12-20T01:59:39;98110.78;;;6.64;100.00
23899;BME280;20544;50.018;20.010;2023-12-20T02:02:56;98110.56;;;6.74;100.00
23899;BME280;20544;50.018;20.010;2023-12-20T02:06:20;98109.36;;;6.85;100.00
23899;BME280;20544;50.018;20.010;2023-12-20T02:09:42;98101.27;;;6.86;100.00
23899;BME280;20544;50.018;20.010;2023-12-20T02:13:00;98099.47;;;6.87;100.00
23899;BME280;20544;50.018;20.010;2023-12-20T02:16:18;98093.32;;;6.94;100.00
23899;BME280;20544;50.018;20.010;2023-12-20T02:19:41;98099.17;;;7.05;100.00
23899;BME280;20544;50.018;20.010;2023-12-20T02:22:58;98088.99;;;7.02;100.00
23899;BME280;20544;50.018;20.010;2023-12-20T02:26:16;98079.44;;;7.01;100.00
23899;BME280;20544;50.018;20.010;2023-12-20T02:29:34;98081.70;;;7.04;100.00
23899;BME280;20544;50.018;20.010;2023-12-20T02:32:52;98066.02;;;7.10;100.00
23899;BME280;20544;50.018;20.010;2023-12-20T02:36:10;98071.58;;;7.16;100.00
23899;BME280;20544;50.018;20.010;2023-12-20T02:39:28;98067.06;;;7.24;100.00
23899;BME280;20544;50.018;20.010;2023-12-20T02:42:46;98072.98;;;7.26;100.00
23899;BME280;20544;50.018;20.010;2023-12-20T02:46:04;98071.34;;;7.25;100.00
23899;BME280;20544;50.018;20.010;2023-12-20T02:49:23;98056.51;;;7.24;100.00
23899;BME280;20544;50.018;20.010;2023-12-20T02:52:46;98055.67;;;7.24;100.00
23899;BME280;20544;50.018;20.010;2023-12-20T02:56:05;98054.39;;;7.20;100.00
23899;BME280;20544;50.018;20.010;2023-12-20T02:59:26;98064.23;;;7.03;100.00
23899;BME280;20544;50.018;20.010;2023-12-20T03:02:57;98081.06;;;6.78;100.00
23899;BME280;20544;50.018;20.010;2023-12-20T03:06:19;98072.78;;;6.58;100.00
23899;BME280;20544;50.018;20.010;2023-12-20T03:09:53;98069.08;;;6.44;100.00
23899;BME280;20544;50.018;20.010;2023-12-20T03:13:17;98073.20;;;6.39;100.00
23899;BME280;20544;50.018;20.010;2023-12-20T03:16:44;98067.94;;;6.39;100.00
23899;BME280;20544;50.018;20.010;2023-12-20T03:20:12;98063.03;;;6.36;100.00
23899;BME280;20544;50.018;20.010;2023-12-20T03:23:32;98054.59;;;6.40;100.00
23899;BME280;20544;50.018;20.010;2023-12-20T03:26:51;98061.56;;;6.33;100.00
23899;BME280;20544;50.018;20.010;2023-12-20T03:30:10;98057.99;;;6.18;100.00
23899;BME280;20544;50.018;20.010;2023-12-20T03:37:03;98057.23;;;5.92;100.00
23899;BME280;20544;50.018;20.010;2023-12-20T03:40:20;98058.89;;;5.93;100.00
23899;BME280;20544;50.018;20.010;2023-12-20T03:43:55;98062.66;;;5.99;100.00
23899;BME280;20544;50.018;20.010;2023-12-20T03:47:54;98068.09;;;6.06;100.00
23899;BME280;20544;50.018;20.010;2023-12-20T03:51:16;98063.94;;;6.11;100.00
23899;BME280;20544;50.018;20.010;2023-12-20T03:54:35;98068.34;;;6.19;100.00
23899;BME280;20544;50.018;20.010;2023-12-20T03:57:52;98069.00;;;6.21;100.00
23899;BME280;20544;50.018;20.010;2023-12-20T04:01:13;98061.41;;;6.26;100.00
23899;BME280;20544;50.018;20.010;2023-12-20T04:04:30;98062.88;;;6.29;100.00
23899;BME280;20544;50.018;20.010;2023-12-20T04:07:48;98061.38;;;6.35;100.00
23899;BME280;20544;50.018;20.010;2023-12-20T04:11:05;98055.75;;;6.38;100.00
23899;BME280;20544;50.018;20.010;2023-12-20T04:14:23;98057.22;;;6.40;100.00
23899;BME280;20544;50.018;20.010;2023-12-20T04:17:40;98050.45;;;6.46;100.00
23899;BME280;20544;50.018;20.010;2023-12-20T04:20:59;98050.94;;;6.50;100.00
23899;BME280;20544;50.018;20.010;2023-12-20T04:24:16;98052.03;;;6.55;100.00
23899;BME280;20544;50.018;20.010;2023-12-20T04:27:33;98055.33;;;6.57;100.00
23899;BME280;20544;50.018;20.010;2023-12-20T04:30:51;98052.36;;;6.60;100.00
23899;BME280;20544;50.018;20.010;2023-12-20T04:34:16;98052.19;;;6.62;100.00
23899;BME280;20544;50.018;20.010;2023-12-20T04:37:34;98047.72;;;6.62;100.00
23899;BME280;20544;50.018;20.010;2023-12-20T04:40:52;98057.45;;;6.62;100.00
23899;BME280;20544;50.018;20.010;2023-12-20T04:44:10;98055.80;;;6.61;100.00
23899;BME280;20544;50.018;20.010;2023-12-20T04:47:27;98064.04;;;6.58;100.00
23899;BME280;20544;50.018;20.010;2023-12-20T04:50:51;98064.88;;;6.58;100.00
23899;BME280;20544;50.018;20.010;2023-12-20T04:54:09;98064.52;;;6.61;100.00
23899;BME280;20544;50.018;20.010;2023-12-20T04:57:26;98065.17;;;6.63;100.00
23899;BME280;20544;50.018;20.010;2023-12-20T05:00:44;98070.63;;;6.62;100.00
23899;BME280;20544;50.018;20.010;2023-12-20T05:04:03;98072.27;;;6.63;100.00
23899;BME280;20544;50.018;20.010;2023-12-20T05:07:22;98070.27;;;6.65;100.00
23899;BME280;20544;50.018;20.010;2023-12-20T05:10:40;98066.45;;;6.68;100.00
23899;BME280;20544;50.018;20.010;2023-12-20T05:13:57;98068.76;;;6.71;100.00
23899;BME280;20544;50.018;20.010;2023-12-20T05:17:14;98060.86;;;6.71;100.00
23899;BME280;20544;50.018;20.010;2023-12-20T05:20:31;98063.49;;;6.71;100.00
23899;BME280;20544;50.018;20.010;2023-12-20T05:23:49;98057.56;;;6.69;100.00
23899;BME280;20544;50.018;20.010;2023-12-20T05:27:06;98071.80;;;6.59;100.00
23899;BME280;20544;50.018;20.010;2023-12-20T05:30:28;98060.60;;;6.57;100.00
23899;BME280;20544;50.018;20.010;2023-12-20T05:33:49;98052.10;;;6.47;100.00
23899;BME280;20544;50.018;20.010;2023-12-20T05:37:07;98049.11;;;6.50;100.00
23899;BME280;20544;50.018;20.010;2023-12-20T05:40:36;98049.47;;;6.47;100.00
23899;BME280;20544;50.018;20.010;2023-12-20T05:43:56;98052.91;;;6.47;100.00
23899;BME280;20544;50.018;20.010;2023-12-20T05:47:14;98050.16;;;6.41;100.00
23899;BME280;20544;50.018;20.010;2023-12-20T05:50:32;98047.38;;;6.34;100.00
23899;BME280;20544;50.018;20.010;2023-12-20T05:53:53;98045.22;;;6.38;100.00
23899;BME280;20544;50.018;20.010;2023-12-20T05:57:10;98031.42;;;6.36;100.00
23899;BME280;20544;50.018;20.010;2023-12-20T06:00:28;98034.89;;;6.28;100.00
23899;BME280;20544;50.018;20.010;2023-12-20T06:03:45;98036.90;;;6.26;100.00
23899;BME280;20544;50.018;20.010;2023-12-20T06:07:05;98037.77;;;6.18;100.00
23899;BME280;20544;50.018;20.010;2023-12-20T06:10:24;98041.89;;;6.12;100.00
23899;BME280;20544;50.018;20.010;2023-12-20T06:13:41;98059.03;;;6.08;100.00
23899;BME280;20544;50.018;20.010;2023-12-20T06:16:59;98057.70;;;6.04;100.00
23899;BME280;20544;50.018;20.010;2023-12-20T06:20:19;98056.39;;;6.08;100.00
23899;BME280;20544;50.018;20.010;2023-12-20T06:23:36;98058.55;;;6.05;100.00
23899;BME280;20544;50.018;20.010;2023-12-20T06:26:53;98056.59;;;5.98;100.00
23899;BME280;20544;50.018;20.010;2023-12-20T06:30:12;98056.08;;;5.95;100.00
23899;BME280;20544;50.018;20.010;2023-12-20T06:33:41;98061.03;;;5.90;100.00
23899;BME280;20544;50.018;20.010;2023-12-20T06:37:00;98058.73;;;5.87;100.00
23899;BME280;20544;50.018;20.010;2023-12-20T06:40:20;98060.88;;;5.83;100.00
23899;BME280;20544;50.018;20.010;2023-12-20T06:43:39;98052.65;;;5.86;100.00
23899;BME280;20544;50.018;20.010;2023-12-20T06:46:59;98049.71;;;5.81;100.00
23899;BME280;20544;50.018;20.010;2023-12-20T06:50:22;98051.98;;;5.84;100.00
23899;BME280;20544;50.018;20.010;2023-12-20T06:53:39;98054.13;;;5.89;100.00
23899;BME280;20544;50.018;20.010;2023-12-20T06:57:04;98046.23;;;5.80;100.00
23899;BME280;20544;50.018;20.010;2023-12-20T07:00:22;98055.12;;;5.79;100.00
23899;BME280;20544;50.018;20.010;2023-12-20T07:03:40;98056.63;;;5.74;100.00
23899;BME280;20544;50.018;20.010;2023-12-20T07:06:57;98052.70;;;5.70;100.00
23899;BME280;20544;50.018;20.010;2023-12-20T07:10:14;98058.28;;;5.66;100.00
23899;BME280;20544;50.018;20.010;2023-12-20T07:13:31;98056.64;;;5.65;100.00
23899;BME280;20544;50.018;20.010;2023-12-20T07:16:48;98059.13;;;5.67;100.00
23899;BME280;20544;50.018;20.010;2023-12-20T07:20:06;98069.48;;;5.60;100.00
23899;BME280;20544;50.018;20.010;2023-12-20T07:23:24;98070.14;;;5.54;100.00
23899;BME280;20544;50.018;20.010;2023-12-20T07:26:41;98069.66;;;5.50;100.00
23899;BME280;20544;50.018;20.010;2023-12-20T07:29:58;98070.49;;;5.51;100.00
23899;BME280;20544;50.018;20.010;2023-12-20T07:33:14;98070.98;;;5.38;100.00
23899;BME280;20544;50.018;20.010;2023-12-20T07:36:32;98071.00;;;5.30;100.00
23899;BME280;20544;50.018;20.010;2023-12-20T07:39:50;98077.89;;;5.39;100.00
23899;BME280;20544;50.018;20.010;2023-12-20T07:43:07;98086.94;;;5.45;100.00
23899;BME280;20544;50.018;20.010;2023-12-20T07:46:24;98082.83;;;5.42;100.00
23899;BME280;20544;50.018;20.010;2023-12-20T07:49:41;98082.98;;;5.41;100.00
23899;BME280;20544;50.018;20.010;2023-12-20T07:53:05;98083.64;;;5.43;100.00
23899;BME280;20544;50.018;20.010;2023-12-20T07:56:25;98085.95;;;5.38;100.00
23899;BME280;20544;50.018;20.010;2023-12-20T07:59:42;98085.63;;;5.32;100.00
23899;BME280;20544;50.018;20.010;2023-12-20T08:03:00;98088.58;;;5.38;100.00
23899;BME280;20544;50.018;20.010;2023-12-20T08:06:18;98082.66;;;5.35;100.00
23899;BME280;20544;50.018;20.010;2023-12-20T08:09:42;98093.34;;;5.34;100.00
23899;BME280;20544;50.018;20.010;2023-12-20T08:12:59;98083.15;;;5.39;100.00
23899;BME280;20544;50.018;20.010;2023-12-20T08:16:16;98084.47;;;5.35;100.00
23899;BME280;20544;50.018;20.010;2023-12-20T08:19:34;98088.43;;;5.31;100.00
23899;BME280;20544;50.018;20.010;2023-12-20T08:22:51;98079.53;;;5.40;100.00
23899;BME280;20544;50.018;20.010;2023-12-20T08:26:10;98084.97;;;5.39;100.00
23899;BME280;20544;50.018;20.010;2023-12-20T08:29:24;98086.45;;;5.41;100.00
23899;BME280;20544;50.018;20.010;2023-12-20T08:32:40;98081.84;;;5.35;100.00
23899;BME280;20544;50.018;20.010;2023-12-20T08:35:57;98074.13;;;5.25;100.00
23899;BME280;20544;50.018;20.010;2023-12-20T08:39:15;98078.71;;;5.23;100.00
23899;BME280;20544;50.018;20.010;2023-12-20T08:42:32;98086.45;;;5.25;100.00
23899;BME280;20544;50.018;20.010;2023-12-20T08:45:49;98080.36;;;5.24;100.00
23899;BME280;20544;50.018;20.010;2023-12-20T08:49:07;98072.97;;;5.28;100.00
23899;BME280;20544;50.018;20.010;2023-12-20T08:52:24;98077.91;;;5.23;100.00
23899;BME280;20544;50.018;20.010;2023-12-20T08:55:41;98082.36;;;5.22;100.00
23899;BME280;20544;50.018;20.010;2023-12-20T08:58:58;98077.58;;;5.17;100.00
23899;BME280;20544;50.018;20.010;2023-12-20T09:02:18;98065.09;;;5.11;100.00
23899;BME280;20544;50.018;20.010;2023-12-20T09:05:35;98067.23;;;5.16;100.00
23899;BME280;20544;50.018;20.010;2023-12-20T09:08:53;98075.27;;;5.14;100.00
23899;BME280;20544;50.018;20.010;2023-12-20T09:12:10;98083.64;;;5.18;100.00
23899;BME280;20544;50.018;20.010;2023-12-20T09:15:44;98074.77;;;5.11;100.00
23899;BME280;20544;50.018;20.010;2023-12-20T09:19:02;98083.32;;;5.13;100.00
23899;BME280;20544;50.018;20.010;2023-12-20T09:22:28;98076.75;;;5.09;100.00
23899;BME280;20544;50.018;20.010;2023-12-20T09:25:51;98067.55;;;5.13;100.00
23899;BME280;20544;50.018;20.010;2023-12-20T09:29:08;98071.16;;;5.12;100.00
23899;BME280;20544;50.018;20.010;2023-12-20T09:32:26;98078.56;;;5.16;100.00
23899;BME280;20544;50.018;20.010;2023-12-20T09:35:45;98070.00;;;5.14;100.00
23899;BME280;20544;50.018;20.010;2023-12-20T09:39:02;98066.56;;;5.14;100.00
23899;BME280;20544;50.018;20.010;2023-12-20T09:42:24;98062.28;;;5.05;100.00
23899;BME280;20544;50.018;20.010;2023-12-20T09:45:46;98061.96;;;5.08;100.00
23899;BME280;20544;50.018;20.010;2023-12-20T09:49:06;98061.63;;;5.11;100.00
23899;BME280;20544;50.018;20.010;2023-12-20T09:52:24;98056.05;;;5.14;100.00
23899;BME280;20544;50.018;20.010;2023-12-20T09:55:43;98056.06;;;5.22;100.00
23899;BME280;20544;50.018;20.010;2023-12-20T09:59:00;98053.26;;;5.24;100.00
23899;BME280;20544;50.018;20.010;2023-12-20T10:02:19;98042.41;;;5.10;100.00
23899;BME280;20544;50.018;20.010;2023-12-20T10:05:45;98035.50;;;5.09;100.00
23899;BME280;20544;50.018;20.010;2023-12-20T10:09:12;98031.09;;;5.10;100.00
23899;BME280;20544;50.018;20.010;2023-12-20T10:12:33;98036.51;;;5.00;100.00
23899;BME280;20544;50.018;20.010;2023-12-20T10:15:52;98033.20;;;4.90;100.00
23899;BME280;20544;50.018;20.010;2023-12-20T10:19:09;98034.02;;;4.98;100.00
23899;BME280;20544;50.018;20.010;2023-12-20T10:22:28;98037.48;;;4.99;100.00
23899;BME280;20544;50.018;20.010;2023-12-20T10:25:57;98030.09;;;4.94;100.00
23899;BME280;20544;50.018;20.010;2023-12-20T10:33:03;98032.88;;;4.93;100.00
23899;BME280;20544;50.018;20.010;2023-12-20T10:36:22;98023.84;;;4.87;100.00
23899;BME280;20544;50.018;20.010;2023-12-20T10:39:44;98041.74;;;4.75;100.00
23899;BME280;20544;50.018;20.010;2023-12-20T10:43:26;98024.66;;;4.79;100.00
23899;BME280;20544;50.018;20.010;2023-12-20T10:46:45;98031.54;;;4.72;100.00
23899;BME280;20544;50.018;20.010;2023-12-20T10:50:08;98028.59;;;4.83;100.00
23899;BME280;20544;50.018;20.010;2023-12-20T10:53:26;98018.58;;;4.70;100.00
23899;BME280;20544;50.018;20.010;2023-12-20T10:56:46;98016.92;;;4.69;100.00
23899;BME280;20544;50.018;20.010;2023-12-20T11:00:11;98010.38;;;4.74;100.00
23899;BME280;20544;50.018;20.010;2023-12-20T11:03:34;98009.23;;;4.76;100.00
23899;BME280;20544;50.018;20.010;2023-12-20T11:06:59;98008.08;;;4.62;100.00
23899;BME280;20544;50.018;20.010;2023-12-20T11:10:21;98014.30;;;4.69;100.00
23899;BME280;20544;50.018;20.010;2023-12-20T11:13:48;98010.72;;;4.79;100.00
23899;BME280;20544;50.018;20.010;2023-12-20T11:17:10;98007.76;;;4.74;100.00
23899;BME280;20544;50.018;20.010;2023-12-20T11:20:40;98017.12;;;4.76;100.00
23899;BME280;20544;50.018;20.010;2023-12-20T11:24:04;98010.54;;;4.80;100.00
23899;BME280;20544;50.018;20.010;2023-12-20T11:27:22;98011.84;;;4.84;100.00
23899;BME280;20544;50.018;20.010;2023-12-20T11:31:01;98023.68;;;4.80;100.00
23899;BME280;20544;50.018;20.010;2023-12-20T11:34:46;98007.89;;;4.72;100.00
23899;BME280;20544;50.018;20.010;2023-12-20T11:38:09;98006.59;;;4.68;100.00
23899;BME280;20544;50.018;20.010;2023-12-20T11:41:28;98010.52;;;4.72;100.00
23899;BME280;20544;50.018;20.010;2023-12-20T11:44:46;98005.45;;;4.79;100.00
23899;BME280;20544;50.018;20.010;2023-12-20T11:48:14;98001.98;;;4.78;100.00
23899;BME280;20544;50.018;20.010;2023-12-20T11:51:31;97993.97;;;4.80;100.00
23899;BME280;20544;50.018;20.010;2023-12-20T11:54:49;97999.70;;;4.92;100.00
23899;BME280;20544;50.018;20.010;2023-12-20T11:58:07;97993.30;;;4.94;100.00
23899;BME280;20544;50.018;20.010;2023-12-20T12:01:28;97986.06;;;4.88;100.00
23899;BME280;20544;50.018;20.010;2023-12-20T12:04:46;98006.77;;;4.91;100.00
23899;BME280;20544;50.018;20.010;2023-12-20T12:08:10;97996.27;;;4.91;100.00
23899;BME280;20544;50.018;20.010;2023-12-20T12:11:27;98007.41;;;4.93;100.00
23899;BME280;20544;50.018;20.010;2023-12-20T12:14:44;98008.89;;;4.96;100.00
23899;BME280;20544;50.018;20.010;2023-12-20T12:18:06;98006.09;;;5.06;100.00
23899;BME280;20544;50.018;20.010;2023-12-20T12:21:31;97999.05;;;4.98;100.00
23899;BME280;20544;50.018;20.010;2023-12-20T12:24:51;98002.16;;;4.93;100.00
23899;BME280;20544;50.018;20.010;2023-12-20T12:28:11;98005.63;;;4.94;100.00
23899;BME280;20544;50.018;20.010;2023-12-20T12:31:28;98001.67;;;4.98;100.00
23899;BME280;20544;50.018;20.010;2023-12-20T12:34:45;97988.36;;;4.99;100.00
23899;BME280;20544;50.018;20.010;2023-12-20T12:38:02;97994.13;;;4.95;100.00
23899;BME280;20544;50.018;20.010;2023-12-20T12:41:23;97996.73;;;5.03;100.00
23899;BME280;20544;50.018;20.010;2023-12-20T12:44:43;97991.30;;;5.05;100.00
23899;BME280;20544;50.018;20.010;2023-12-20T12:48:00;97998.21;;;5.06;100.00
23899;BME280;20544;50.018;20.010;2023-12-20T12:51:21;98000.69;;;4.99;100.00
23899;BME280;20544;50.018;20.010;2023-12-20T12:54:50;98004.80;;;5.01;100.00
23899;BME280;20544;50.018;20.010;2023-12-20T12:58:07;98003.33;;;5.07;100.00
23899;BME280;20544;50.018;20.010;2023-12-20T13:01:31;98009.55;;;4.98;100.00
23899;BME280;20544;50.018;20.010;2023-12-20T13:04:52;98005.63;;;4.94;100.00
23899;BME280;20544;50.018;20.010;2023-12-20T13:08:57;98002.83;;;5.04;100.00
23899;BME280;20544;50.018;20.010;2023-12-20T13:12:19;97990.02;;;5.09;100.00
23899;BME280;20544;50.018;20.010;2023-12-20T13:15:39;97995.77;;;5.12;100.00
23899;BME280;20544;50.018;20.010;2023-12-20T13:18:58;98006.77;;;5.08;100.00
23899;BME280;20544;50.018;20.010;2023-12-20T13:22:16;98008.73;;;5.14;100.00
23899;BME280;20544;50.018;20.010;2023-12-20T13:25:33;97993.27;;;5.11;100.00
23899;BME280;20544;50.018;20.010;2023-12-20T13:28:59;98017.77;;;5.11;100.00
23899;BME280;20544;50.018;20.010;2023-12-20T13:32:19;98015.45;;;5.08;100.00
23899;BME280;20544;50.018;20.010;2023-12-20T13:35:39;98023.66;;;5.13;100.00
23899;BME280;20544;50.018;20.010;2023-12-20T13:38:58;98021.20;;;5.12;100.00
23899;BME280;20544;50.018;20.010;2023-12-20T13:42:16;98010.38;;;5.15;100.00
23899;BME280;20544;50.018;20.010;2023-12-20T13:45:37;98014.66;;;5.16;100.00
23899;BME280;20544;50.018;20.010;2023-12-20T13:48:57;98013.84;;;5.07;100.00
23899;BME280;20544;50.018;20.010;2023-12-20T13:52:16;98019.73;;;5.09;100.00
23899;BME280;20544;50.018;20.010;2023-12-20T13:55:37;98022.39;;;5.01;100.00
23899;BME280;20544;50.018;20.010;2023-12-20T13:58:55;98019.24;;;5.06;100.00
23899;BME280;20544;50.018;20.010;2023-12-20T14:02:20;98021.55;;;5.00;100.00
23899;BME280;20544;50.018;20.010;2023-12-20T14:05:40;98013.66;;;5.00;100.00
23899;BME280;20544;50.018;20.010;2023-12-20T14:08:57;98009.38;;;4.99;100.00
23899;BME280;20544;50.018;20.010;2023-12-20T14:12:14;97999.54;;;5.01;100.00
23899;BME280;20544;50.018;20.010;2023-12-20T14:15:32;98024.50;;;5.06;100.00
23899;BME280;20544;50.018;20.010;2023-12-20T14:18:54;98016.62;;;5.14;100.00
23899;BME280;20544;50.018;20.010;2023-12-20T14:22:13;98029.61;;;5.07;100.00
23899;BME280;20544;50.018;20.010;2023-12-20T14:25:46;98027.62;;;5.09;100.00
23899;BME280;20544;50.018;20.010;2023-12-20T14:29:05;98016.93;;;5.11;100.00
23899;BME280;20544;50.018;20.010;2023-12-20T14:32:24;98018.41;;;5.13;100.00
23899;BME280;20544;50.018;20.010;2023-12-20T14:35:45;98020.72;;;5.16;100.00
23899;BME280;20544;50.018;20.010;2023-12-20T14:39:02;98022.55;;;5.16;100.00
23899;BME280;20544;50.018;20.010;2023-12-20T14:42:22;98020.22;;;5.05;100.00
23899;BME280;20544;50.018;20.010;2023-12-20T14:45:41;98023.03;;;5.11;100.00
23899;BME280;20544;50.018;20.010;2023-12-20T14:49:10;98024.19;;;5.09;100.00
23899;BME280;20544;50.018;20.010;2023-12-20T14:52:32;98008.59;;;5.07;100.00
23899;BME280;20544;50.018;20.010;2023-12-20T14:55:54;98024.84;;;5.02;100.00
23899;BME280;20544;50.018;20.010;2023-12-20T14:59:11;98017.77;;;5.03;100.00
23899;BME280;20544;50.018;20.010;2023-12-20T15:02:28;98031.08;;;5.01;100.00
23899;BME280;20544;50.018;20.010;2023-12-20T15:05:46;98014.98;;;4.96;100.00
23899;BME280;20544;50.018;20.010;2023-12-20T15:09:03;98014.16;;;5.04;100.00
23899;BME280;20544;50.018;20.010;2023-12-20T15:12:20;98023.36;;;5.00;100.00
23899;BME280;20544;50.018;20.010;2023-12-20T15:15:42;98024.00;;;5.02;100.00
23899;BME280;20544;50.018;20.010;2023-12-20T15:19:16;98013.19;;;4.89;100.00
23899;BME280;20544;50.018;20.010;2023-12-20T15:22:34;98023.03;;;4.86;100.00
23899;BME280;20544;50.018;20.010;2023-12-20T15:25:53;98028.77;;;4.82;100.00
23899;BME280;20544;50.018;20.010;2023-12-20T15:29:12;98021.88;;;4.89;100.00
23899;BME280;20544;50.018;20.010;2023-12-20T15:32:30;98025.50;;;4.96;100.00
23899;BME280;20544;50.018;20.010;2023-12-20T15:35:47;98030.27;;;5.01;100.00
23899;BME280;20544;50.018;20.010;2023-12-20T15:39:20;98024.00;;;5.02;100.00
23899;BME280;20544;50.018;20.010;2023-12-20T15:42:37;98031.58;;;5.05;100.00
23899;BME280;20544;50.018;20.010;2023-12-20T15:45:56;98016.29;;;5.00;100.00
23899;BME280;20544;50.018;20.010;2023-12-20T15:49:15;98013.66;;;5.00;100.00
23899;BME280;20544;50.018;20.010;2023-12-20T15:52:33;98015.16;;;4.95;100.00
23899;BME280;20544;50.018;20.010;2023-12-20T15:56:00;98024.33;;;4.91;100.00
23899;BME280;20544;50.018;20.010;2023-12-20T15:59:30;98020.23;;;4.88;100.00
23899;BME280;20544;50.018;20.010;2023-12-20T16:02:56;98030.25;;;4.76;100.00
23899;BME280;20544;50.018;20.010;2023-12-20T16:06:13;98028.13;;;4.80;100.00
23899;BME280;20544;50.018;20.010;2023-12-20T16:09:31;98026.64;;;4.77;100.00
23899;BME280;20544;50.018;20.010;2023-12-20T16:12:58;98021.39;;;4.77;100.00
23899;BME280;20544;50.018;20.010;2023-12-20T16:16:16;98024.33;;;4.74;100.00
23899;BME280;20544;50.018;20.010;2023-12-20T16:19:33;98021.55;;;4.67;100.00
23899;BME280;20544;50.018;20.010;2023-12-20T16:23:27;98028.25;;;4.62;100.00
23899;BME280;20544;50.018;20.010;2023-12-20T16:26:47;98032.36;;;4.64;100.00
23899;BME280;20544;50.018;20.010;2023-12-20T16:30:04;98034.01;;;4.65;100.00
23899;BME280;20544;50.018;20.010;2023-12-20T16:33:56;98034.67;;;4.67;100.00
23899;BME280;20544;50.018;20.010;2023-12-20T16:37:16;98028.42;;;4.60;100.00
23899;BME280;20544;50.018;20.010;2023-12-20T16:40:37;98018.89;;;4.59;100.00
23899;BME280;20544;50.018;20.010;2023-12-20T16:43:57;98012.16;;;4.57;100.00
23899;BME280;20544;50.018;20.010;2023-12-20T16:47:13;98008.70;;;4.48;100.00
23899;BME280;20544;50.018;20.010;2023-12-20T16:50:34;98018.23;;;4.49;100.00
23899;BME280;20544;50.018;20.010;2023-12-20T16:53:52;98015.44;;;4.50;100.00
23899;BME280;20544;50.018;20.010;2023-12-20T16:57:10;98016.89;;;4.45;100.00
23899;BME280;20544;50.018;20.010;2023-12-20T17:00:31;98018.53;;;4.46;100.00
23899;BME280;20544;50.018;20.010;2023-12-20T17:03:51;98018.73;;;4.52;100.00
23899;BME280;20544;50.018;20.010;2023-12-20T17:07:08;98019.54;;;4.53;100.00
23899;BME280;20544;50.018;20.010;2023-12-20T17:10:29;98016.08;;;4.44;100.00
23899;BME280;20544;50.018;20.010;2023-12-20T17:13:46;98018.03;;;4.42;100.00
23899;BME280;20544;50.018;20.010;2023-12-20T17:17:05;98009.52;;;4.40;100.00
23899;BME280;20544;50.018;20.010;2023-12-20T17:20:22;98010.66;;;4.37;100.00
23899;BME280;20544;50.018;20.010;2023-12-20T17:23:42;98005.41;;;4.37;100.00
23899;BME280;20544;50.018;20.010;2023-12-20T17:27:02;98013.79;;;4.41;100.00
23899;BME280;20544;50.018;20.010;2023-12-20T17:30:22;98012.44;;;4.37;100.00
23899;BME280;20544;50.018;20.010;2023-12-20T17:33:41;98010.49;;;4.39;100.00